Time;durP1;ratioP1;P1;durP2;ratioP2;P2;SDS_P1;SDS_P2;PMS_P1;PMS_P2;Temp;Humidity;BMP_temperature;BMP_pressure;BME280_temperature;BME280_humidity;BME280_pressure;Samples;Min_cycle;Max_cycle;Signal;HPM_P1;HPM_P2
2021/04/14 00:01:08;;;;;;;4.03;3.00;;;;;;;;;;4935391;29;20212;-78
2021/04/14 00:03:35;;;;;;;2.63;2.45;;;;;;;;;;4919905;29;20442;-80
2021/04/14 00:06:01;;;;;;;3.92;2.88;;;;;;;;;;4939414;29;20543;-79
2021/04/14 00:08:27;;;;;;;5.03;2.95;;;;;;;;;;4939547;29;20181;-79
2021/04/14 00:10:54;;;;;;;3.33;2.38;;;;;;;;;;4937800;29;20185;-78
2021/04/14 00:13:23;;;;;;;3.65;2.10;;;;;;;;;;4945874;29;20219;-78
2021/04/14 00:15:51;;;;;;;4.75;2.67;;;;;;;;;;4939214;29;20571;-80
2021/04/14 00:18:18;;;;;;;2.25;2.05;;;;;;;;;;4939094;29;20188;-79
2021/04/14 00:20:44;;;;;;;3.30;2.15;;;;;;;;;;4939209;29;20314;-80
2021/04/14 00:23:11;;;;;;;6.15;3.10;;;;;;;;;;4938827;29;20259;-80
2021/04/14 00:28:41;;;;;;;4.72;2.38;;;;;;;;;;4943360;29;20243;-78
2021/04/14 00:31:08;;;;;;;2.85;2.42;;;;;;;;;;4921748;29;20657;-80
2021/04/14 00:33:34;;;;;;;3.00;2.20;;;;;;;;;;4938789;29;20211;-80
2021/04/14 00:36:00;;;;;;;3.20;2.65;;;;;;;;;;4938589;29;20212;-80
2021/04/14 00:38:26;;;;;;;3.40;2.65;;;;;;;;;;4938475;29;20169;-76
2021/04/14 00:43:55;;;;;;;5.30;2.45;;;;;;;;;;4938652;29;20210;-80
2021/04/14 00:46:21;;;;;;;2.05;1.95;;;;;;;;;;4938297;29;20188;-80
2021/04/14 00:48:47;;;;;;;4.53;2.45;;;;;;;;;;4938467;29;20189;-79
2021/04/14 00:51:14;;;;;;;3.42;2.55;;;;;;;;;;4938378;29;20180;-79
2021/04/14 00:53:40;;;;;;;2.40;2.03;;;;;;;;;;4938201;29;20176;-78
2021/04/14 00:56:06;;;;;;;2.67;2.20;;;;;;;;;;4938064;29;20211;-80
2021/04/14 00:58:32;;;;;;;3.03;2.15;;;;;;;;;;4937986;29;20244;-80
2021/04/14 01:00:58;;;;;;;2.88;2.10;;;;;;;;;;4938380;29;20252;-79
2021/04/14 01:03:31;;;;;;;3.67;2.40;;;;;;;;;;4938209;29;20618;-80
2021/04/14 01:05:58;;;;;;;2.63;2.28;;;;;;;;;;4937906;29;20644;-78
2021/04/14 01:08:24;;;;;;;2.67;2.45;;;;;;;;;;4938028;29;20196;-79
2021/04/14 01:13:53;;;;;;;5.10;2.50;;;;;;;;;;4937601;29;21029;-80
2021/04/14 01:16:19;;;;;;;2.90;1.70;;;;;;;;;;4937190;29;20211;-79
2021/04/14 01:18:46;;;;;;;5.00;2.50;;;;;;;;;;4937870;29;20526;-78
2021/04/14 01:21:14;;;;;;;1.75;1.50;;;;;;;;;;4937860;29;20442;-81
2021/04/14 01:29:29;;;;;;;2.33;2.13;;;;;;;;;;4937819;29;20207;-79
2021/04/14 01:31:55;;;;;;;3.40;1.97;;;;;;;;;;4937829;29;20169;-80
2021/04/14 01:34:21;;;;;;;3.23;2.50;;;;;;;;;;4937613;29;20502;-78
2021/04/14 01:36:47;;;;;;;2.30;1.93;;;;;;;;;;4937407;29;20805;-78
2021/04/14 01:39:13;;;;;;;3.22;2.08;;;;;;;;;;4937602;29;20423;-79
2021/04/14 01:41:40;;;;;;;2.47;1.70;;;;;;;;;;4937269;29;20181;-76
2021/04/14 01:44:10;;;;;;;3.03;2.15;;;;;;;;;;4937276;29;20173;-77
2021/04/14 01:46:36;;;;;;;3.80;2.63;;;;;;;;;;4937493;29;20180;-76
2021/04/14 01:49:03;;;;;;;5.43;2.10;;;;;;;;;;4937382;29;20211;-80
2021/04/14 01:51:29;;;;;;;1.88;1.77;;;;;;;;;;4949199;29;20187;-80
2021/04/14 01:53:55;;;;;;;2.38;2.00;;;;;;;;;;4952423;29;20180;-77
2021/04/14 01:56:21;;;;;;;2.00;1.80;;;;;;;;;;4941999;29;20223;-76
2021/04/14 01:58:47;;;;;;;6.00;2.40;;;;;;;;;;4937692;28;20564;-81
2021/04/14 02:01:13;;;;;;;2.17;1.98;;;;;;;;;;4937202;29;20176;-74
2021/04/14 02:03:40;;;;;;;5.15;2.17;;;;;;;;;;4919150;29;20248;-80
2021/04/14 02:06:07;;;;;;;3.80;2.03;;;;;;;;;;4937378;29;20228;-79
2021/04/14 02:08:33;;;;;;;7.97;2.90;;;;;;;;;;4937015;29;20175;-79
2021/04/14 02:14:03;;;;;;;2.50;2.30;;;;;;;;;;4937190;29;20223;-78
2021/04/14 02:16:29;;;;;;;6.20;3.45;;;;;;;;;;4936725;29;20212;-77
2021/04/14 02:18:55;;;;;;;4.13;1.70;;;;;;;;;;4936863;29;20230;-79
2021/04/14 02:21:22;;;;;;;3.00;2.28;;;;;;;;;;4936706;29;20456;-80
2021/04/14 02:23:49;;;;;;;4.13;2.60;;;;;;;;;;4936946;29;20176;-80
2021/04/14 02:29:18;;;;;;;2.58;2.30;;;;;;;;;;4936756;29;20318;-76
2021/04/14 02:31:44;;;;;;;3.97;2.30;;;;;;;;;;4936548;29;20604;-80
2021/04/14 02:34:12;;;;;;;2.40;2.20;;;;;;;;;;4936564;29;20433;-80
2021/04/14 02:36:38;;;;;;;3.13;2.38;;;;;;;;;;4936116;29;20733;-78
2021/04/14 02:44:52;;;;;;;2.60;2.30;;;;;;;;;;4936435;29;20178;-78
2021/04/14 02:47:18;;;;;;;3.00;2.57;;;;;;;;;;4936204;29;20187;-78
2021/04/14 02:49:44;;;;;;;4.63;3.10;;;;;;;;;;4936169;29;20455;-79
2021/04/14 02:52:10;;;;;;;7.67;3.10;;;;;;;;;;4919019;29;20439;-77
2021/04/14 02:54:36;;;;;;;3.37;2.63;;;;;;;;;;4936107;29;20425;-80
2021/04/14 02:57:02;;;;;;;3.67;2.40;;;;;;;;;;4935904;29;20574;-78
2021/04/14 02:59:28;;;;;;;2.67;2.45;;;;;;;;;;4936199;29;20526;-80
2021/04/14 03:01:54;;;;;;;5.23;2.53;;;;;;;;;;4936205;29;20225;-80
2021/04/14 03:04:20;;;;;;;2.97;2.20;;;;;;;;;;4936640;29;20438;-80
2021/04/14 03:06:46;;;;;;;4.80;2.63;;;;;;;;;;4936400;29;20416;-76
2021/04/14 03:09:12;;;;;;;4.90;2.60;;;;;;;;;;4935909;29;20455;-78
2021/04/14 03:14:42;;;;;;;3.33;2.95;;;;;;;;;;4935872;29;20418;-80
2021/04/14 03:17:08;;;;;;;4.22;3.38;;;;;;;;;;4935597;29;20215;-78
2021/04/14 03:19:34;;;;;;;6.10;2.80;;;;;;;;;;4935876;29;20174;-78
2021/04/14 03:22:00;;;;;;;3.40;2.78;;;;;;;;;;4935811;29;20541;-79
2021/04/14 03:24:26;;;;;;;3.17;2.80;;;;;;;;;;4935865;29;20662;-79
2021/04/14 03:26:52;;;;;;;3.25;2.95;;;;;;;;;;4935617;29;20167;-78
2021/04/14 03:29:18;;;;;;;2.50;2.30;;;;;;;;;;4935767;29;20641;-77
2021/04/14 03:31:44;;;;;;;3.47;2.25;;;;;;;;;;4947218;29;20911;-76
2021/04/14 03:34:10;;;;;;;3.15;2.90;;;;;;;;;;4951326;29;20176;-79
2021/04/14 03:36:36;;;;;;;3.07;2.70;;;;;;;;;;4936586;29;20576;-79
2021/04/14 03:39:03;;;;;;;2.55;2.35;;;;;;;;;;4938338;29;20494;-77
2021/04/14 03:44:35;;;;;;;3.08;2.78;;;;;;;;;;4940142;29;20221;-77
2021/04/14 03:47:01;;;;;;;7.03;2.38;;;;;;;;;;4939602;29;20171;-77
2021/04/14 03:49:28;;;;;;;3.40;2.00;;;;;;;;;;4939828;29;20545;-79
2021/04/14 03:51:54;;;;;;;3.42;2.70;;;;;;;;;;4939537;29;20224;-78
2021/04/14 03:54:20;;;;;;;3.40;3.00;;;;;;;;;;4939371;29;20179;-78
2021/04/14 03:59:50;;;;;;;3.25;2.70;;;;;;;;;;4939516;29;20198;-78
2021/04/14 04:02:16;;;;;;;4.97;4.10;;;;;;;;;;4939069;29;20176;-78
2021/04/14 04:04:42;;;;;;;3.28;2.95;;;;;;;;;;4922037;29;20796;-80
2021/04/14 04:07:08;;;;;;;3.37;2.80;;;;;;;;;;4939044;29;20189;-79
2021/04/14 04:09:34;;;;;;;4.70;3.60;;;;;;;;;;4921852;29;20495;-79
2021/04/14 04:12:01;;;;;;;6.60;3.37;;;;;;;;;;4938912;29;20450;-75
2021/04/14 04:14:32;;;;;;;5.95;4.15;;;;;;;;;;4938763;29;20431;-81
2021/04/14 04:16:57;;;;;;;3.13;2.92;;;;;;;;;;4938844;29;20213;-79
2021/04/14 04:19:23;;;;;;;4.33;3.43;;;;;;;;;;4938847;29;20619;-79
2021/04/14 04:21:50;;;;;;;5.20;3.23;;;;;;;;;;4938871;29;20783;-80
2021/04/14 04:24:16;;;;;;;3.78;3.17;;;;;;;;;;4938959;29;20503;-78
2021/04/14 04:29:45;;;;;;;3.25;2.38;;;;;;;;;;4938911;29;20219;-78
2021/04/14 04:32:11;;;;;;;6.95;3.50;;;;;;;;;;4938627;29;20180;-81
2021/04/14 04:34:37;;;;;;;6.07;3.10;;;;;;;;;;4938695;29;20190;-81
2021/04/14 04:37:03;;;;;;;5.17;3.87;;;;;;;;;;4938233;29;20981;-80
2021/04/14 04:39:29;;;;;;;4.60;3.30;;;;;;;;;;4938592;29;20419;-80
2021/04/14 04:44:59;;;;;;;7.70;4.22;;;;;;;;;;4938872;29;20430;-78
2021/04/14 04:47:25;;;;;;;9.95;4.85;;;;;;;;;;4938452;29;20187;-77
2021/04/14 04:49:51;;;;;;;5.70;4.50;;;;;;;;;;4938432;29;20185;-80
2021/04/14 04:52:17;;;;;;;6.00;4.20;;;;;;;;;;4938543;29;20430;-79
2021/04/14 04:54:43;;;;;;;7.38;4.75;;;;;;;;;;4938422;29;20220;-75
2021/04/14 05:00:13;;;;;;;11.82;4.50;;;;;;;;;;4938033;29;20239;-74
2021/04/14 05:02:39;;;;;;;4.57;3.80;;;;;;;;;;4938390;29;20706;-79
2021/04/14 05:05:07;;;;;;;7.28;3.92;;;;;;;;;;4937733;29;20184;-81
2021/04/14 05:07:33;;;;;;;5.43;3.88;;;;;;;;;;4937686;29;20238;-78
2021/04/14 05:10:00;;;;;;;7.68;3.95;;;;;;;;;;4943950;29;20196;-76
2021/04/14 05:12:26;;;;;;;9.82;4.63;;;;;;;;;;4952950;29;20576;-78
2021/04/14 05:14:52;;;;;;;12.90;4.15;;;;;;;;;;4944681;29;20216;-77
2021/04/14 05:17:18;;;;;;;7.03;3.70;;;;;;;;;;4938763;29;20265;-80
2021/04/14 05:19:44;;;;;;;5.10;3.60;;;;;;;;;;4937780;29;20409;-79
2021/04/14 05:22:10;;;;;;;3.90;3.60;;;;;;;;;;4920787;29;20961;-77
2021/04/14 05:24:36;;;;;;;4.47;2.65;;;;;;;;;;4938028;29;20416;-79
2021/04/14 05:30:06;;;;;;;5.07;3.95;;;;;;;;;;4942550;29;20175;-83
2021/04/14 05:32:32;;;;;;;8.02;3.08;;;;;;;;;;4942441;29;20200;-89
2021/04/14 05:34:58;;;;;;;5.03;2.67;;;;;;;;;;4940348;29;20191;-81
2021/04/14 05:37:23;;;;;;;4.47;2.87;;;;;;;;;;4936974;29;20227;-79
2021/04/14 05:39:49;;;;;;;5.80;3.70;;;;;;;;;;4937247;29;20941;-81
2021/04/14 05:45:21;;;;;;;3.30;2.60;;;;;;;;;;4937199;29;20424;-82
2021/04/14 05:47:47;;;;;;;5.13;2.97;;;;;;;;;;4936874;29;20188;-79
2021/04/14 05:50:14;;;;;;;3.30;3.00;;;;;;;;;;4936924;29;20223;-81
2021/04/14 05:52:40;;;;;;;6.55;3.20;;;;;;;;;;4936616;29;20558;-77
2021/04/14 05:55:06;;;;;;;4.00;3.17;;;;;;;;;;4936794;29;20231;-82
2021/04/14 06:00:36;;;;;;;3.30;3.00;;;;;;;;;;4936386;29;20518;-80
2021/04/14 06:03:02;;;;;;;5.97;3.60;;;;;;;;;;4937330;29;20416;-80
2021/04/14 06:05:28;;;;;;;5.87;3.90;;;;;;;;;;4919909;29;20432;-79
2021/04/14 06:07:54;;;;;;;4.57;3.60;;;;;;;;;;4936796;29;20471;-79
2021/04/14 06:10:21;;;;;;;10.77;3.90;;;;;;;;;;4936567;29;20428;-81
2021/04/14 06:12:48;;;;;;;10.67;4.00;;;;;;;;;;4936431;29;20420;-81
2021/04/14 06:15:16;;;;;;;7.43;4.07;;;;;;;;;;4936371;29;20421;-81
2021/04/14 06:17:42;;;;;;;6.97;4.37;;;;;;;;;;4936486;29;20572;-81
2021/04/14 06:20:09;;;;;;;8.30;4.00;;;;;;;;;;4936698;29;20448;-80
2021/04/14 06:22:36;;;;;;;13.03;4.60;;;;;;;;;;4936833;29;20843;-79
2021/04/14 06:25:04;;;;;;;5.83;3.97;;;;;;;;;;4936251;29;20472;-79
2021/04/14 06:30:35;;;;;;;5.13;4.40;;;;;;;;;;4936091;29;20536;-78
2021/04/14 06:33:03;;;;;;;12.60;4.13;;;;;;;;;;4936080;29;20772;-80
2021/04/14 06:35:30;;;;;;;6.83;3.67;;;;;;;;;;4936272;29;20521;-79
2021/04/14 06:37:56;;;;;;;7.80;3.70;;;;;;;;;;4936023;29;20438;-81
2021/04/14 06:46:23;;;;;;;6.53;4.80;;;;;;;;;;4942777;29;20431;-74
2021/04/14 06:48:55;;;;;;;8.80;4.57;;;;;;;;;;4934463;29;20428;-82
2021/04/14 06:51:29;;;;;;;4.70;3.37;;;;;;;;;;4945896;29;20435;-77
2021/04/14 06:53:55;;;;;;;4.90;3.83;;;;;;;;;;4927125;29;20535;-78
2021/04/14 06:56:22;;;;;;;4.20;3.80;;;;;;;;;;4935470;29;20504;-81
2021/04/14 06:58:49;;;;;;;5.30;3.57;;;;;;;;;;4934517;29;20475;-81
2021/04/14 07:01:22;;;;;;;5.97;3.40;;;;;;;;;;4934202;29;20820;-81
2021/04/14 07:03:53;;;;;;;4.83;2.90;;;;;;;;;;4934448;29;20420;-82
2021/04/14 07:06:20;;;;;;;4.23;3.40;;;;;;;;;;4934161;29;20421;-80
2021/04/14 07:09:01;;;;;;;5.30;3.40;;;;;;;;;;4934542;29;20441;-82
2021/04/14 07:11:30;;;;;;;8.03;3.47;;;;;;;;;;4934119;29;20424;-81
2021/04/14 07:13:56;;;;;;;3.50;3.20;;;;;;;;;;4933330;29;20424;-75
2021/04/14 07:16:42;;;;;;;4.10;3.10;;;;;;;;;;4934279;29;20532;-81
2021/04/14 07:19:27;;;;;;;3.67;2.87;;;;;;;;;;4933997;29;20527;-80
2021/04/14 07:22:00;;;;;;;4.17;3.80;;;;;;;;;;4934597;29;20863;-82
2021/04/14 07:24:32;;;;;;;4.70;3.10;;;;;;;;;;4934074;29;20918;-76
2021/04/14 07:27:16;;;;;;;4.13;3.33;;;;;;;;;;4934079;29;20427;-80
2021/04/14 07:29:49;;;;;;;6.27;3.47;;;;;;;;;;4933968;29;20416;-80
2021/04/14 07:32:41;;;;;;;8.03;4.13;;;;;;;;;;4933867;29;20437;-80
2021/04/14 07:35:17;;;;;;;4.13;3.73;;;;;;;;;;4905503;29;20962;-82
2021/04/14 07:37:46;;;;;;;4.00;3.63;;;;;;;;;;4933869;29;20470;-81
2021/04/14 07:40:31;;;;;;;4.70;3.83;;;;;;;;;;4934145;29;20720;-81
2021/04/14 07:43:03;;;;;;;4.60;4.20;;;;;;;;;;4934740;29;20772;-81
2021/04/14 07:45:30;;;;;;;6.23;3.60;;;;;;;;;;4935191;29;20424;-81
2021/04/14 07:48:04;;;;;;;7.30;4.00;;;;;;;;;;4935240;29;20427;-80
2021/04/14 07:50:41;;;;;;;4.40;3.67;;;;;;;;;;4934842;29;20412;-81
2021/04/14 07:53:21;;;;;;;4.20;3.00;;;;;;;;;;4934888;29;20427;-82
2021/04/14 07:55:47;;;;;;;4.23;3.70;;;;;;;;;;4916141;29;20479;-77
2021/04/14 07:58:24;;;;;;;3.37;2.63;;;;;;;;;;4933860;29;20527;-78
2021/04/14 08:00:50;;;;;;;5.60;3.70;;;;;;;;;;4933840;29;20412;-76
2021/04/14 08:03:22;;;;;;;4.33;3.33;;;;;;;;;;4934656;29;20519;-78
2021/04/14 08:05:48;;;;;;;4.60;4.20;;;;;;;;;;4934606;29;20474;-77
2021/04/14 08:08:21;;;;;;;9.07;4.23;;;;;;;;;;4933778;29;20420;-79
2021/04/14 08:10:54;;;;;;;5.97;4.07;;;;;;;;;;4934715;29;20452;-74
2021/04/14 08:13:26;;;;;;;4.37;3.97;;;;;;;;;;4938694;29;20419;-76
2021/04/14 08:15:52;;;;;;;6.40;3.20;;;;;;;;;;4934846;29;20462;-76
2021/04/14 08:18:21;;;;;;;4.20;3.77;;;;;;;;;;4934404;29;20442;-76
2021/04/14 08:21:02;;;;;;;3.80;3.50;;;;;;;;;;4934569;29;20485;-79
2021/04/14 08:23:30;;;;;;;5.90;4.23;;;;;;;;;;4933995;29;20427;-77
2021/04/14 08:25:57;;;;;;;4.93;4.40;;;;;;;;;;4937355;29;20434;-75
2021/04/14 08:28:33;;;;;;;5.40;4.10;;;;;;;;;;4937653;29;20459;-76
2021/04/14 08:31:35;;;;;;;6.13;4.70;;;;;;;;;;4937813;29;20422;-76
2021/04/14 08:34:16;;;;;;;5.90;3.73;;;;;;;;;;4937341;29;20420;-81
2021/04/14 08:36:45;;;;;;;7.70;4.03;;;;;;;;;;4937324;29;20463;-75
2021/04/14 08:39:19;;;;;;;4.80;4.30;;;;;;;;;;4937478;29;20416;-80
2021/04/14 08:44:50;;;;;;;4.20;3.00;;;;;;;;;;4940489;29;20500;-75
2021/04/14 08:47:26;;;;;;;4.83;3.03;;;;;;;;;;4944497;29;20420;-78
2021/04/14 08:50:12;;;;;;;3.87;2.80;;;;;;;;;;4940889;29;20420;-78
2021/04/14 08:52:40;;;;;;;3.93;3.40;;;;;;;;;;4937502;29;20428;-80
2021/04/14 08:55:07;;;;;;;4.47;3.87;;;;;;;;;;4937593;29;20569;-81
2021/04/14 09:00:37;;;;;;;4.33;3.50;;;;;;;;;;4937276;29;20439;-79
2021/04/14 09:03:04;;;;;;;4.87;3.73;;;;;;;;;;4936940;29;20413;-80
2021/04/14 09:05:31;;;;;;;7.87;3.70;;;;;;;;;;4936824;29;20895;-79
2021/04/14 09:07:58;;;;;;;3.90;2.70;;;;;;;;;;4938866;29;20441;-80
2021/04/14 09:10:35;;;;;;;3.70;2.90;;;;;;;;;;4937294;29;20425;-80
2021/04/14 09:16:05;;;;;;;4.00;3.60;;;;;;;;;;4936925;29;20504;-79
2021/04/14 09:18:39;;;;;;;4.00;3.60;;;;;;;;;;4937275;29;20428;-79
2021/04/14 09:21:06;;;;;;;5.17;3.20;;;;;;;;;;4937041;29;20479;-80
2021/04/14 09:23:32;;;;;;;5.20;3.00;;;;;;;;;;4936875;29;20421;-75
2021/04/14 09:26:01;;;;;;;3.37;3.03;;;;;;;;;;4936846;29;20510;-78
2021/04/14 09:31:41;;;;;;;3.63;3.30;;;;;;;;;;4936816;29;20434;-77
2021/04/14 09:34:27;;;;;;;4.23;3.33;;;;;;;;;;4936726;29;20424;-75
2021/04/14 09:37:07;;;;;;;5.53;2.93;;;;;;;;;;4923157;29;20570;-81
2021/04/14 09:39:36;;;;;;;7.40;3.43;;;;;;;;;;4937026;29;20436;-78
2021/04/14 09:42:14;;;;;;;3.50;3.20;;;;;;;;;;4937400;29;20424;-81
2021/04/14 09:44:43;;;;;;;4.10;3.53;;;;;;;;;;4937404;29;20412;-80
2021/04/14 09:47:12;;;;;;;5.67;4.20;;;;;;;;;;4919223;29;20494;-78
2021/04/14 09:49:39;;;;;;;5.50;2.50;;;;;;;;;;4936375;29;20427;-81
2021/04/14 09:52:19;;;;;;;3.50;3.13;;;;;;;;;;4920038;29;20434;-79
2021/04/14 09:54:45;;;;;;;4.40;2.10;;;;;;;;;;4936713;29;20457;-81
2021/04/14 09:57:16;;;;;;;2.13;1.93;;;;;;;;;;4935290;29;20476;-80
2021/04/14 09:59:42;;;;;;;4.40;2.10;;;;;;;;;;4936236;29;20415;-80
2021/04/14 10:02:22;;;;;;;3.00;1.80;;;;;;;;;;4936427;29;20420;-79
2021/04/14 10:04:49;;;;;;;3.33;1.87;;;;;;;;;;4935672;29;20916;-75
2021/04/14 10:07:23;;;;;;;3.40;2.67;;;;;;;;;;4936141;29;20555;-78
2021/04/14 10:09:49;;;;;;;3.30;1.93;;;;;;;;;;4935838;29;20419;-77
2021/04/14 10:12:16;;;;;;;1.97;1.87;;;;;;;;;;4936431;29;20419;-76
2021/04/14 10:14:53;;;;;;;3.10;2.00;;;;;;;;;;4936112;29;20954;-75
2021/04/14 10:17:20;;;;;;;4.10;2.47;;;;;;;;;;4935818;29;20471;-76
2021/04/14 10:19:52;;;;;;;2.50;2.27;;;;;;;;;;4936937;29;20903;-75
2021/04/14 10:22:19;;;;;;;2.80;2.50;;;;;;;;;;4936874;29;20435;-74
2021/04/14 10:24:47;;;;;;;2.23;1.90;;;;;;;;;;4936718;29;20411;-81
2021/04/14 10:27:19;;;;;;;5.90;3.33;;;;;;;;;;4936679;29;20413;-79
2021/04/14 10:29:45;;;;;;;2.77;2.57;;;;;;;;;;4936547;29;20435;-79
2021/04/14 10:32:20;;;;;;;1.87;1.67;;;;;;;;;;4936728;29;20466;-82
2021/04/14 10:34:46;;;;;;;2.33;1.63;;;;;;;;;;4938224;29;20913;-80
2021/04/14 10:37:17;;;;;;;4.27;2.13;;;;;;;;;;4940239;29;20472;-81
2021/04/14 10:39:44;;;;;;;2.43;2.23;;;;;;;;;;4940332;29;20839;-81
2021/04/14 10:48:17;;;;;;;1.60;1.50;;;;;;;;;;4936142;29;20425;-75
2021/04/14 10:50:43;;;;;;;4.10;1.73;;;;;;;;;;4936518;29;20508;-76
2021/04/14 10:53:10;;;;;;;2.17;1.60;;;;;;;;;;4936114;29;20431;-73
2021/04/14 10:55:48;;;;;;;3.50;2.43;;;;;;;;;;4941647;29;20434;-76
2021/04/14 10:58:20;;;;;;;2.57;2.33;;;;;;;;;;4946926;29;20548;-76
2021/04/14 11:00:47;;;;;;;2.50;2.30;;;;;;;;;;4946402;29;20422;-80
2021/04/14 11:03:16;;;;;;;5.83;2.23;;;;;;;;;;4936637;29;20404;-77
2021/04/14 11:05:52;;;;;;;5.80;2.30;;;;;;;;;;4936420;29;20772;-83
2021/04/14 11:08:19;;;;;;;2.80;2.37;;;;;;;;;;4935952;29;20419;-81
2021/04/14 11:10:45;;;;;;;6.50;2.77;;;;;;;;;;4935947;29;20421;-81
2021/04/14 11:13:20;;;;;;;3.17;2.83;;;;;;;;;;4935191;29;20523;-81
2021/04/14 11:15:48;;;;;;;6.63;2.70;;;;;;;;;;4935101;29;20474;-80
2021/04/14 11:18:15;;;;;;;4.17;2.20;;;;;;;;;;4935470;29;20427;-79
2021/04/14 11:20:49;;;;;;;5.43;2.77;;;;;;;;;;4935444;29;20864;-81
2021/04/14 11:23:26;;;;;;;2.80;2.23;;;;;;;;;;4935691;29;20435;-80
2021/04/14 11:26:03;;;;;;;2.73;2.53;;;;;;;;;;4935370;29;20494;-79
2021/04/14 11:28:38;;;;;;;4.67;1.83;;;;;;;;;;4935255;29;20563;-82
2021/04/14 11:31:04;;;;;;;3.47;2.50;;;;;;;;;;4935705;29;20425;-84
2021/04/14 11:33:35;;;;;;;3.17;2.70;;;;;;;;;;4935707;29;20456;-80
2021/04/14 11:36:01;;;;;;;5.23;2.70;;;;;;;;;;4935169;29;20827;-79
2021/04/14 11:38:27;;;;;;;3.53;2.30;;;;;;;;;;4935314;29;20507;-81
2021/04/14 11:40:53;;;;;;;3.20;2.40;;;;;;;;;;4935689;29;20408;-82
2021/04/14 11:43:38;;;;;;;3.30;2.47;;;;;;;;;;4935861;29;20492;-84
2021/04/14 11:46:28;;;;;;;3.50;2.53;;;;;;;;;;4936283;29;20432;-82
2021/04/14 11:48:56;;;;;;;4.50;2.60;;;;;;;;;;4926027;29;20442;-78
2021/04/14 11:51:27;;;;;;;2.77;2.57;;;;;;;;;;4935541;29;20796;-79
2021/04/14 11:53:55;;;;;;;2.43;2.23;;;;;;;;;;4935463;29;20440;-77
2021/04/14 11:56:24;;;;;;;2.90;2.27;;;;;;;;;;4934763;29;20825;-77
2021/04/14 11:58:51;;;;;;;2.80;2.47;;;;;;;;;;4935004;29;20804;-81
2021/04/14 12:01:22;;;;;;;2.70;2.13;;;;;;;;;;4938860;29;20932;-76
2021/04/14 12:03:48;;;;;;;2.90;2.70;;;;;;;;;;4939119;29;20429;-80
2021/04/14 12:06:14;;;;;;;4.70;3.10;;;;;;;;;;4921096;29;20441;-80
2021/04/14 12:08:40;;;;;;;1.97;1.87;;;;;;;;;;4938798;29;20431;-79
2021/04/14 12:11:14;;;;;;;3.03;2.03;;;;;;;;;;4938065;29;20891;-76
2021/04/14 12:13:40;;;;;;;3.13;2.10;;;;;;;;;;4938897;29;20419;-79
2021/04/14 12:16:06;;;;;;;2.40;1.83;;;;;;;;;;4939023;29;20818;-78
2021/04/14 12:18:32;;;;;;;1.90;1.80;;;;;;;;;;4939070;29;20419;-78
2021/04/14 12:20:58;;;;;;;3.07;2.77;;;;;;;;;;4938960;29;20427;-80
2021/04/14 12:23:24;;;;;;;2.10;1.60;;;;;;;;;;4939050;29;20412;-79
2021/04/14 12:25:50;;;;;;;1.87;1.77;;;;;;;;;;4938793;29;20480;-78
2021/04/14 12:28:16;;;;;;;8.40;2.27;;;;;;;;;;4939016;29;20416;-78
2021/04/14 12:30:42;;;;;;;2.93;2.20;;;;;;;;;;4938932;29;20428;-77
2021/04/14 12:33:08;;;;;;;3.50;1.93;;;;;;;;;;4938898;29;20896;-74
2021/04/14 12:35:34;;;;;;;2.30;2.17;;;;;;;;;;4938588;29;20448;-77
2021/04/14 12:38:03;;;;;;;2.30;2.10;;;;;;;;;;4938757;29;20905;-77
2021/04/14 12:40:29;;;;;;;3.50;2.53;;;;;;;;;;4922122;29;20511;-79
2021/04/14 12:42:56;;;;;;;2.80;2.43;;;;;;;;;;4939044;29;20424;-80
2021/04/14 12:45:35;;;;;;;1.90;1.70;;;;;;;;;;4938773;29;20922;-74
2021/04/14 12:48:02;;;;;;;2.73;2.07;;;;;;;;;;4938883;29;20450;-74
2021/04/14 12:50:28;;;;;;;2.00;1.90;;;;;;;;;;4938543;29;20424;-76
2021/04/14 12:52:55;;;;;;;2.17;2.07;;;;;;;;;;4938558;29;20842;-79
2021/04/14 12:55:37;;;;;;;2.90;1.87;;;;;;;;;;4938346;29;20879;-77
2021/04/14 12:58:03;;;;;;;2.13;1.93;;;;;;;;;;4938448;29;20812;-81
2021/04/14 13:00:30;;;;;;;1.97;1.67;;;;;;;;;;4938392;29;20416;-79
2021/04/14 13:02:58;;;;;;;2.50;2.30;;;;;;;;;;4938493;29;20420;-78
2021/04/14 13:05:27;;;;;;;3.23;2.80;;;;;;;;;;4938270;29;20414;-80
2021/04/14 13:07:59;;;;;;;2.83;2.63;;;;;;;;;;4938508;29;20774;-77
2021/04/14 13:10:30;;;;;;;4.83;2.90;;;;;;;;;;4936929;29;20526;-81
2021/04/14 13:12:56;;;;;;;2.57;2.37;;;;;;;;;;4938219;29;20443;-81
2021/04/14 13:15:25;;;;;;;2.50;2.30;;;;;;;;;;4941819;29;20463;-81
2021/04/14 13:17:53;;;;;;;4.23;2.57;;;;;;;;;;4950117;29;20474;-77
2021/04/14 13:20:20;;;;;;;3.90;2.80;;;;;;;;;;4952062;29;20422;-75
2021/04/14 13:23:04;;;;;;;4.00;3.70;;;;;;;;;;4939712;29;20472;-79
2021/04/14 13:25:42;;;;;;;3.07;2.77;;;;;;;;;;4938081;29;20442;-76
2021/04/14 13:28:13;;;;;;;4.00;2.80;;;;;;;;;;4937923;29;20439;-81
2021/04/14 13:30:42;;;;;;;2.33;2.13;;;;;;;;;;4937769;29;20412;-81
2021/04/14 13:33:12;;;;;;;5.77;3.13;;;;;;;;;;4937984;29;20419;-81
2021/04/14 13:35:43;;;;;;;4.00;3.00;;;;;;;;;;4937799;29;20439;-82
2021/04/14 13:38:09;;;;;;;2.73;2.53;;;;;;;;;;4938534;29;20431;-83
2021/04/14 13:40:56;;;;;;;2.90;2.60;;;;;;;;;;4937975;29;20418;-80
2021/04/14 13:43:25;;;;;;;2.10;2.00;;;;;;;;;;4943596;29;20431;-80
2021/04/14 13:46:00;;;;;;;3.30;2.90;;;;;;;;;;4940802;29;20408;-81
2021/04/14 13:48:28;;;;;;;2.73;2.53;;;;;;;;;;4940499;29;20452;-76
2021/04/14 13:50:57;;;;;;;2.33;2.13;;;;;;;;;;4939495;29;20921;-81
2021/04/14 13:53:30;;;;;;;3.90;2.50;;;;;;;;;;4938722;29;20433;-80
2021/04/14 13:56:05;;;;;;;2.93;2.73;;;;;;;;;;4938399;29;20464;-79
2021/04/14 13:58:52;;;;;;;2.93;2.00;;;;;;;;;;4937846;29;20499;-83
2021/04/14 14:01:20;;;;;;;3.20;2.60;;;;;;;;;;4898779;29;20794;-81
2021/04/14 14:03:46;;;;;;;2.40;2.20;;;;;;;;;;4937328;29;20426;-78
2021/04/14 14:06:16;;;;;;;3.23;2.93;;;;;;;;;;4937212;29;20499;-79
2021/04/14 14:08:46;;;;;;;2.33;1.70;;;;;;;;;;4936884;29;20754;-81
2021/04/14 14:11:18;;;;;;;4.97;2.73;;;;;;;;;;4937044;29;20512;-80
2021/04/14 14:13:45;;;;;;;4.33;2.10;;;;;;;;;;4937331;29;20472;-81
2021/04/14 14:16:12;;;;;;;4.13;2.30;;;;;;;;;;4937064;29;20851;-78
2021/04/14 14:18:39;;;;;;;3.20;2.20;;;;;;;;;;4937105;29;20442;-78
2021/04/14 14:21:06;;;;;;;4.97;2.67;;;;;;;;;;4936932;29;20411;-77
2021/04/14 14:23:38;;;;;;;3.73;2.83;;;;;;;;;;4936744;29;20775;-78
2021/04/14 14:26:04;;;;;;;2.70;2.50;;;;;;;;;;4936928;29;20420;-79
2021/04/14 14:28:30;;;;;;;3.80;2.50;;;;;;;;;;4936831;29;20467;-81
2021/04/14 14:31:06;;;;;;;3.10;2.80;;;;;;;;;;4936695;29;20505;-79
2021/04/14 14:33:37;;;;;;;3.30;3.10;;;;;;;;;;4937171;29;20507;-80
2021/04/14 14:36:09;;;;;;;3.77;3.13;;;;;;;;;;4936500;29;20522;-77
2021/04/14 14:38:39;;;;;;;2.17;2.00;;;;;;;;;;4936410;29;20423;-77
2021/04/14 14:41:06;;;;;;;4.77;2.70;;;;;;;;;;4936141;29;20409;-80
2021/04/14 14:43:35;;;;;;;6.10;2.73;;;;;;;;;;4932973;29;20465;-78
2021/04/14 14:46:06;;;;;;;3.10;2.80;;;;;;;;;;4934931;29;20427;-79
2021/04/14 14:48:37;;;;;;;2.80;2.60;;;;;;;;;;4932108;29;20426;-80
2021/04/14 14:51:05;;;;;;;3.50;3.20;;;;;;;;;;4933095;29;20423;-79
2021/04/14 14:53:31;;;;;;;3.33;3.07;;;;;;;;;;4934265;29;20423;-79
2021/04/14 14:56:07;;;;;;;3.80;3.07;;;;;;;;;;4933824;29;20775;-81
2021/04/14 14:58:37;;;;;;;4.27;2.87;;;;;;;;;;4934230;28;21060;-78
2021/04/14 15:01:05;;;;;;;3.53;2.70;;;;;;;;;;4934177;29;20779;-80
2021/04/14 15:03:31;;;;;;;3.67;2.30;;;;;;;;;;4934005;29;20430;-74
2021/04/14 15:05:58;;;;;;;3.73;2.87;;;;;;;;;;4933670;29;20633;-76
2021/04/14 15:08:24;;;;;;;3.20;2.90;;;;;;;;;;4933760;29;20463;-77
2021/04/14 15:10:50;;;;;;;3.33;2.97;;;;;;;;;;4934161;29;20514;-75
2021/04/14 15:13:16;;;;;;;2.70;2.50;;;;;;;;;;4915555;29;21057;-76
2021/04/14 15:18:46;;;;;;;2.90;2.70;;;;;;;;;;4934198;29;20481;-75
2021/04/14 15:21:13;;;;;;;2.70;2.50;;;;;;;;;;4936965;29;20463;-79
2021/04/14 15:23:40;;;;;;;3.47;3.00;;;;;;;;;;4946649;29;20484;-77
2021/04/14 15:26:09;;;;;;;2.77;2.53;;;;;;;;;;4941608;29;20433;-74
2021/04/14 15:28:39;;;;;;;2.87;2.70;;;;;;;;;;4935623;29;20434;-75
2021/04/14 15:34:08;;;;;;;3.67;3.40;;;;;;;;;;4934887;29;20425;-79
2021/04/14 15:36:35;;;;;;;2.53;2.40;;;;;;;;;;4935478;29;20914;-78
2021/04/14 15:39:03;;;;;;;3.20;3.00;;;;;;;;;;4935727;29;20481;-73
2021/04/14 15:41:29;;;;;;;3.13;2.90;;;;;;;;;;4935261;29;20504;-76
2021/04/14 15:43:57;;;;;;;3.00;2.70;;;;;;;;;;4935583;29;20486;-77
2021/04/14 15:46:23;;;;;;;4.67;2.67;;;;;;;;;;4935325;29;20416;-80
2021/04/14 15:48:49;;;;;;;3.53;3.20;;;;;;;;;;4935494;29;20414;-78
2021/04/14 15:51:16;;;;;;;2.97;2.77;;;;;;;;;;4935463;29;21009;-76
2021/04/14 15:53:43;;;;;;;3.00;2.80;;;;;;;;;;4935386;29;20414;-77
2021/04/14 15:56:09;;;;;;;4.40;2.93;;;;;;;;;;4932450;29;20962;-79
2021/04/14 15:58:35;;;;;;;4.30;3.50;;;;;;;;;;4935298;29;20475;-79
2021/04/14 16:04:04;;;;;;;5.33;2.90;;;;;;;;;;4935513;29;20430;-76
2021/04/14 16:06:31;;;;;;;3.70;3.40;;;;;;;;;;4935322;29;20455;-78
2021/04/14 16:08:57;;;;;;;5.87;3.07;;;;;;;;;;4934969;29;20511;-77
2021/04/14 16:11:24;;;;;;;3.50;3.20;;;;;;;;;;4935213;29;20887;-76
2021/04/14 16:13:50;;;;;;;3.73;3.10;;;;;;;;;;4935427;29;20422;-76
2021/04/14 16:19:19;;;;;;;4.30;2.70;;;;;;;;;;4935332;29;20481;-79
2021/04/14 16:21:46;;;;;;;3.27;3.07;;;;;;;;;;4935429;29;20421;-77
2021/04/14 16:24:12;;;;;;;6.73;2.97;;;;;;;;;;4935132;29;20408;-77
2021/04/14 16:26:38;;;;;;;6.03;3.83;;;;;;;;;;4935197;29;20413;-77